Time;durP1;ratioP1;P1;durP2;ratioP2;P2;SDS_P1;SDS_P2;PMS_P1;PMS_P2;Temp;Humidity;BMP_temperature;BMP_pressure;BME280_temperature;BME280_humidity;BME280_pressure;Samples;Min_cycle;Max_cycle;Signal;HPM_P1;HPM_P2
2022/05/07 00:01:17;;;;;;;2.15;1.20;;;;;;;27.33;33.07;97163.16;5076140;28;20023;-30
2022/05/07 00:03:43;;;;;;;5.65;1.30;;;;;;;27.33;32.92;97168.41;5079036;28;20044;-29
2022/05/07 00:06:08;;;;;;;4.75;1.35;;;;;;;27.32;32.99;97172.84;5073799;28;20036;-28
2022/05/07 00:08:33;;;;;;;4.85;1.38;;;;;;;27.31;33.03;97170.31;5071006;28;20618;-29
2022/05/07 00:10:59;;;;;;;6.38;1.40;;;;;;;27.31;33.03;97165.88;5076171;28;20036;-29
2022/05/07 00:13:25;;;;;;;4.10;1.50;;;;;;;27.31;33.01;97165.03;5076388;28;20027;-30
2022/05/07 00:18:34;;;;;;;5.00;1.35;;;;;;;27.31;33.11;97162.41;5070010;28;20104;-29
2022/05/07 00:21:00;;;;;;;2.63;1.20;;;;;;;27.30;33.00;97158.91;5079386;28;20525;-29
2022/05/07 00:23:25;;;;;;;4.88;1.58;;;;;;;27.30;32.90;97164.19;5078930;28;20028;-29
2022/05/07 00:25:50;;;;;;;5.47;1.20;;;;;;;27.29;32.93;97159.84;5079772;28;20063;-28
2022/05/07 00:28:16;;;;;;;3.45;1.35;;;;;;;27.29;32.89;97159.84;5078423;28;20035;-29
2022/05/07 00:30:41;;;;;;;6.80;1.65;;;;;;;27.30;33.01;97152.81;5082428;28;20031;-28
2022/05/07 00:33:07;;;;;;;4.75;1.30;;;;;;;27.30;32.91;97153.66;5077784;28;20804;-29
2022/05/07 00:35:32;;;;;;;3.53;1.23;;;;;;;27.30;32.92;97158.91;5080177;28;21229;-30
2022/05/07 00:37:57;;;;;;;2.33;1.00;;;;;;;27.29;32.66;97159.00;5074870;28;20036;-28
2022/05/07 00:40:23;;;;;;;2.22;1.30;;;;;;;27.28;32.88;97155.53;5081511;28;20661;-28
2022/05/07 00:42:48;;;;;;;4.82;1.45;;;;;;;27.29;32.99;97149.31;5077341;28;20027;-30
2022/05/07 00:45:13;;;;;;;4.20;1.20;;;;;;;27.29;32.93;97151.97;5081325;28;20020;-30
2022/05/07 00:47:39;;;;;;;3.90;1.50;;;;;;;27.28;32.84;97152.91;5078971;28;20543;-28
2022/05/07 00:52:49;;;;;;;4.13;1.25;;;;;;;27.28;32.79;97150.28;5077130;28;20042;-29
2022/05/07 00:55:14;;;;;;;7.47;1.58;;;;;;;27.28;32.79;97142.38;5077682;28;20040;-28
2022/05/07 00:57:40;;;;;;;8.70;1.15;;;;;;;27.28;32.86;97137.13;5075906;28;20059;-28
2022/05/07 01:00:06;;;;;;;4.28;1.33;;;;;;;27.28;32.83;97139.75;5077282;28;20043;-32
2022/05/07 01:02:31;;;;;;;2.55;1.05;;;;;;;27.27;32.92;97133.63;5073557;28;20055;-29
2022/05/07 01:04:57;;;;;;;4.57;1.33;;;;;;;27.27;32.94;97138.06;5074733;28;20036;-29
2022/05/07 01:07:22;;;;;;;3.47;1.20;;;;;;;27.27;32.76;97138.06;5073696;28;20047;-29
2022/05/07 01:09:48;;;;;;;2.85;1.45;;;;;;;27.26;32.91;97134.56;5077680;28;20048;-31
2022/05/07 01:12:13;;;;;;;7.00;1.33;;;;;;;27.26;32.81;97138.97;5073205;28;20081;-31
2022/05/07 01:14:39;;;;;;;3.25;1.27;;;;;;;27.26;32.71;97131.06;5076744;28;20220;-29
2022/05/07 01:17:07;;;;;;;2.10;1.30;;;;;;;27.27;32.73;97127.53;5076218;28;20031;-32
2022/05/07 01:19:33;;;;;;;2.78;1.38;;;;;;;27.26;32.74;97131.06;5075563;28;20035;-29
2022/05/07 01:21:58;;;;;;;3.15;1.38;;;;;;;27.26;32.85;97120.53;5073471;28;20679;-31
2022/05/07 01:24:24;;;;;;;2.53;1.13;;;;;;;27.26;32.76;97131.06;5070815;28;20040;-29
2022/05/07 01:26:49;;;;;;;2.58;1.17;;;;;;;27.25;32.75;97134.63;5075245;28;20048;-29
2022/05/07 01:29:15;;;;;;;1.52;1.00;;;;;;;27.24;32.68;97132.94;5075069;28;20043;-28
2022/05/07 01:31:41;;;;;;;5.10;1.50;;;;;;;27.25;32.76;97129.38;5073120;28;20043;-29
2022/05/07 01:34:06;;;;;;;2.38;1.45;;;;;;;27.25;32.71;97132.00;5073504;28;20051;-28
2022/05/07 01:36:32;;;;;;;2.67;1.02;;;;;;;27.25;32.74;97129.38;5079209;28;20035;-29
2022/05/07 01:38:57;;;;;;;2.20;1.15;;;;;;;27.25;32.75;97124.09;5078572;28;20031;-28
2022/05/07 01:41:22;;;;;;;2.85;1.33;;;;;;;27.23;32.81;97128.63;5081097;28;20028;-29
2022/05/07 01:43:48;;;;;;;2.03;0.98;;;;;;;27.24;32.88;97133.78;5078183;28;20136;-29
2022/05/07 01:49:11;;;;;;;2.40;1.10;;;;;;;27.24;32.66;97131.13;5039096;28;20039;-28
2022/05/07 01:51:36;;;;;;;4.57;1.20;;;;;;;27.24;32.83;97132.94;5079488;28;20581;-30
2022/05/07 01:54:01;;;;;;;2.47;1.30;;;;;;;27.23;32.78;97123.34;5076991;28;20035;-30
2022/05/07 01:56:27;;;;;;;2.35;1.20;;;;;;;27.22;32.79;97125.13;5076395;28;20058;-30
2022/05/07 01:58:52;;;;;;;1.90;0.95;;;;;;;27.23;32.66;97129.44;5073361;28;20020;-29
2022/05/07 02:01:19;;;;;;;2.53;1.27;;;;;;;27.23;32.63;97131.25;5072086;28;20363;-29
2022/05/07 02:03:44;;;;;;;3.55;1.20;;;;;;;27.22;32.67;97135.66;5081676;28;20028;-28
2022/05/07 02:06:09;;;;;;;1.83;1.00;;;;;;;27.22;32.61;97130.38;5084160;28;20035;-28
2022/05/07 02:08:35;;;;;;;4.32;1.30;;;;;;;27.22;32.72;97133.03;5079768;28;20374;-29
2022/05/07 02:11:01;;;;;;;3.13;1.10;;;;;;;27.22;32.62;97134.78;5079780;28;20039;-29
2022/05/07 02:13:27;;;;;;;2.08;0.80;;;;;;;27.21;32.63;97127.84;5083097;28;20669;-29
2022/05/07 02:15:52;;;;;;;1.60;1.20;;;;;;;27.21;32.64;97133.97;5080707;28;20035;-29
2022/05/07 02:18:18;;;;;;;2.33;1.00;;;;;;;27.21;32.63;97127.84;5079617;28;20042;-30
2022/05/07 02:20:43;;;;;;;2.83;1.10;;;;;;;27.21;32.66;97128.69;5078206;28;20085;-30
2022/05/07 02:23:09;;;;;;;2.80;1.23;;;;;;;27.20;32.58;97131.41;5074141;28;20038;-29
2022/05/07 02:25:34;;;;;;;4.85;1.23;;;;;;;27.20;32.68;97136.66;5082165;28;20024;-30
2022/05/07 02:27:59;;;;;;;2.35;1.00;;;;;;;27.19;32.40;97133.19;5080081;28;20104;-30
2022/05/07 02:30:25;;;;;;;2.38;0.90;;;;;;;27.20;32.58;97131.41;5081018;28;20494;-29
2022/05/07 02:32:50;;;;;;;1.33;0.88;;;;;;;27.20;32.55;97126.16;5077578;28;20024;-29
2022/05/07 02:35:16;;;;;;;1.08;0.93;;;;;;;27.20;32.52;97128.78;5076790;28;20151;-29
2022/05/07 02:37:41;;;;;;;3.03;0.98;;;;;;;27.20;32.47;97131.41;5078561;28;20649;-29
2022/05/07 02:40:07;;;;;;;1.52;1.00;;;;;;;27.19;32.58;97134.97;5078067;28;20043;-29
2022/05/07 02:42:39;;;;;;;3.50;1.10;;;;;;;27.20;32.56;97136.66;5071864;28;20031;-30
2022/05/07 02:45:09;;;;;;;2.38;1.15;;;;;;;27.19;32.54;97129.72;5078612;28;20028;-29
2022/05/07 02:47:38;;;;;;;1.52;0.82;;;;;;;27.20;32.51;97134.03;5077567;28;20096;-28
2022/05/07 02:50:04;;;;;;;1.63;0.88;;;;;;;27.19;32.53;97129.72;5074479;28;21946;-34
2022/05/07 02:52:33;;;;;;;1.45;1.00;;;;;;;27.19;32.54;97129.72;5073757;28;20495;-28
2022/05/07 02:55:02;;;;;;;1.70;0.93;;;;;;;27.18;32.47;97122.72;5075628;28;20837;-31
2022/05/07 02:57:27;;;;;;;5.70;1.83;;;;;;;27.19;32.48;97127.09;5075409;28;20114;-29
2022/05/07 02:59:53;;;;;;;3.35;1.38;;;;;;;27.17;32.50;97126.31;5077467;28;20092;-28
2022/05/07 03:02:18;;;;;;;2.78;1.20;;;;;;;27.17;32.44;97121.03;5078639;28;20031;-29
2022/05/07 03:04:44;;;;;;;2.53;1.30;;;;;;;27.16;32.42;97120.22;5076232;28;20110;-28
2022/05/07 03:07:09;;;;;;;2.45;1.05;;;;;;;27.16;32.34;97128.09;5076477;28;20960;-29
2022/05/07 03:09:35;;;;;;;3.88;1.13;;;;;;;27.17;32.48;97128.94;5075542;28;20141;-30
2022/05/07 03:12:00;;;;;;;2.15;1.13;;;;;;;27.17;32.44;97121.03;5079955;28;20031;-28
2022/05/07 03:14:26;;;;;;;2.15;0.90;;;;;;;27.17;32.40;97126.31;5080926;28;20148;-28
2022/05/07 03:16:51;;;;;;;3.13;1.00;;;;;;;27.16;32.34;97124.59;5075627;28;20031;-29
2022/05/07 03:19:16;;;;;;;1.65;1.10;;;;;;;27.16;32.45;97122.84;5077267;28;20028;-30
2022/05/07 03:21:43;;;;;;;10.68;1.45;;;;;;;27.16;32.36;97122.84;5077503;28;20036;-29
2022/05/07 03:24:08;;;;;;;3.65;1.42;;;;;;;27.16;32.38;97124.59;5076363;28;20034;-28
2022/05/07 03:26:34;;;;;;;3.00;1.00;;;;;;;27.15;32.43;97123.75;5077500;28;20024;-29
2022/05/07 03:29:00;;;;;;;2.90;1.20;;;;;;;27.15;32.36;97117.66;5081594;28;20035;-30
2022/05/07 03:31:25;;;;;;;1.90;1.10;;;;;;;27.16;32.50;97119.34;5080660;28;20028;-28
2022/05/07 03:33:51;;;;;;;2.80;1.00;;;;;;;27.14;32.37;97116.78;5078783;28;20627;-29
2022/05/07 03:36:16;;;;;;;4.65;1.10;;;;;;;27.15;32.36;97117.66;5079898;28;20568;-28
2022/05/07 03:38:42;;;;;;;2.15;1.00;;;;;;;27.13;32.38;97120.38;5078434;28;20028;-29
2022/05/07 03:41:07;;;;;;;3.38;1.17;;;;;;;27.15;32.44;97120.28;5083564;28;20032;-28
2022/05/07 03:43:35;;;;;;;2.05;1.17;;;;;;;27.13;32.38;97121.22;5075102;28;20031;-29
2022/05/07 03:46:01;;;;;;;5.40;2.03;;;;;;;27.13;32.37;97115.97;5076681;28;20143;-29
2022/05/07 03:48:29;;;;;;;1.17;0.93;;;;;;;27.13;32.17;97123.84;5075002;28;20721;-30
2022/05/07 03:50:54;;;;;;;1.63;1.00;;;;;;;27.12;32.49;97114.25;5079374;28;20098;-30
2022/05/07 03:53:32;;;;;;;2.53;0.98;;;;;;;27.13;32.29;97120.38;5076854;28;20036;-29
2022/05/07 03:56:03;;;;;;;2.30;1.65;;;;;;;27.12;32.39;97116.88;5078752;28;20034;-29
2022/05/07 03:58:29;;;;;;;3.25;1.00;;;;;;;27.12;32.28;97124.75;5079851;28;20051;-29
2022/05/07 04:00:55;;;;;;;2.45;1.20;;;;;;;27.12;32.50;97129.19;5077490;28;20124;-28
2022/05/07 04:03:20;;;;;;;2.55;1.20;;;;;;;27.10;32.32;97118.75;5073769;28;20350;-29
2022/05/07 04:05:46;;;;;;;1.60;1.10;;;;;;;27.10;32.31;97121.38;5079585;28;20024;-28
2022/05/07 04:08:11;;;;;;;3.40;1.30;;;;;;;27.11;32.28;97123.06;5076505;28;20027;-29
2022/05/07 04:10:37;;;;;;;2.33;0.93;;;;;;;27.10;32.25;97113.50;5079142;28;20145;-29
2022/05/07 04:13:02;;;;;;;2.50;1.17;;;;;;;27.09;32.29;97119.69;5082824;28;20029;-29
2022/05/07 04:15:27;;;;;;;1.98;0.95;;;;;;;27.10;32.31;97126.66;5078686;28;20054;-29
2022/05/07 04:17:53;;;;;;;2.17;1.00;;;;;;;27.11;32.28;97124.84;5077385;28;20569;-29
2022/05/07 04:20:18;;;;;;;1.33;0.95;;;;;;;27.09;32.22;97127.59;5079628;28;20031;-30
2022/05/07 04:22:44;;;;;;;2.35;1.10;;;;;;;27.10;32.29;97129.28;5081468;28;20138;-29
2022/05/07 04:25:10;;;;;;;3.75;1.42;;;;;;;27.10;32.34;97131.03;5075233;28;20042;-31
2022/05/07 04:27:36;;;;;;;3.25;1.45;;;;;;;27.09;32.22;97129.34;5077088;28;20689;-29
2022/05/07 04:30:01;;;;;;;3.40;1.00;;;;;;;27.10;32.27;97128.41;5080313;28;20115;-28
2022/05/07 04:32:27;;;;;;;2.67;0.70;;;;;;;27.09;32.30;97138.09;5075234;28;20573;-27
2022/05/07 04:34:52;;;;;;;1.48;1.00;;;;;;;27.09;32.28;97130.22;5076811;28;20036;-28
2022/05/07 04:37:18;;;;;;;2.35;0.82;;;;;;;27.08;32.29;97133.75;5075395;28;20032;-29
2022/05/07 04:39:43;;;;;;;1.65;1.00;;;;;;;27.08;31.89;97132.91;5077976;28;20653;-28
2022/05/07 04:42:09;;;;;;;2.95;0.93;;;;;;;27.08;32.19;97132.91;5078060;28;20024;-28
2022/05/07 04:44:34;;;;;;;1.00;0.90;;;;;;;27.08;32.15;97131.13;5074316;28;20039;-29
2022/05/07 04:47:00;;;;;;;1.45;1.08;;;;;;;27.08;32.26;97139.00;5074639;28;20032;-28
2022/05/07 04:49:25;;;;;;;1.48;1.00;;;;;;;27.08;32.15;97130.28;5073664;28;20390;-31
2022/05/07 04:51:51;;;;;;;0.95;0.77;;;;;;;27.07;32.21;97137.31;5076143;28;20031;-31
2022/05/07 04:54:20;;;;;;;1.48;0.90;;;;;;;27.07;32.21;97134.69;5081669;28;20028;-28
2022/05/07 04:56:46;;;;;;;1.25;0.70;;;;;;;27.06;32.20;97133.00;5077211;28;20023;-27
2022/05/07 04:59:12;;;;;;;0.95;0.82;;;;;;;27.07;32.14;97137.31;5075465;28;20097;-29
2022/05/07 05:01:37;;;;;;;1.67;1.00;;;;;;;27.08;32.25;97138.19;5076071;28;21011;-28
2022/05/07 05:04:03;;;;;;;1.25;0.95;;;;;;;27.07;32.18;97145.22;5075956;28;20028;-29
2022/05/07 05:06:28;;;;;;;1.33;0.98;;;;;;;27.07;32.11;97142.56;5075797;28;20027;-27
2022/05/07 05:08:54;;;;;;;1.40;0.90;;;;;;;27.07;32.14;97141.72;5078789;27;20093;-29
2022/05/07 05:11:19;;;;;;;0.90;0.80;;;;;;;27.07;32.08;97147.84;5081927;28;20031;-28
2022/05/07 05:13:44;;;;;;;1.30;0.80;;;;;;;27.07;32.22;97142.56;5081545;28;20024;-33
2022/05/07 05:16:10;;;;;;;1.80;1.00;;;;;;;27.07;32.10;97147.84;5078993;28;20846;-29
2022/05/07 05:18:35;;;;;;;0.88;0.80;;;;;;;27.07;31.96;97153.09;5079138;28;20036;-31
2022/05/07 05:21:01;;;;;;;0.90;0.82;;;;;;;27.07;32.09;97155.72;5084963;28;20031;-28
2022/05/07 05:23:26;;;;;;;2.13;1.08;;;;;;;27.07;32.25;97146.97;5078441;28;20054;-30
2022/05/07 05:25:51;;;;;;;1.95;0.80;;;;;;;27.07;32.25;97153.09;5079620;28;20028;-28
2022/05/07 05:28:17;;;;;;;1.80;0.88;;;;;;;27.07;32.10;97146.97;5080403;28;20762;-29
2022/05/07 05:30:42;;;;;;;0.93;0.80;;;;;;;27.07;32.25;97162.75;5083945;28;20035;-28
2022/05/07 05:33:08;;;;;;;2.65;1.02;;;;;;;27.06;32.07;97154.03;5082305;28;20688;-28
2022/05/07 05:35:33;;;;;;;1.60;1.02;;;;;;;27.06;32.21;97151.41;5079837;28;20044;-31
2022/05/07 05:37:59;;;;;;;1.60;1.00;;;;;;;27.06;32.16;97161.94;5079399;28;20035;-29
2022/05/07 05:40:24;;;;;;;1.42;0.95;;;;;;;27.07;32.08;97157.50;5081596;28;20043;-29
2022/05/07 05:42:49;;;;;;;1.95;1.05;;;;;;;27.06;32.03;97166.31;5078002;28;20640;-29
2022/05/07 05:45:16;;;;;;;2.03;0.90;;;;;;;27.05;32.19;97160.25;5079333;28;20470;-29
2022/05/07 05:47:42;;;;;;;2.40;1.00;;;;;;;27.06;32.12;97167.19;5078189;28;20032;-28
2022/05/07 05:50:08;;;;;;;1.20;0.93;;;;;;;27.06;32.19;97167.19;5079749;28;20039;-28
2022/05/07 05:52:33;;;;;;;1.10;0.90;;;;;;;27.05;31.99;97165.50;5080956;28;20991;-29
2022/05/07 05:54:59;;;;;;;4.72;1.17;;;;;;;27.07;32.06;97157.50;5078440;28;20032;-29
2022/05/07 05:57:24;;;;;;;1.33;0.95;;;;;;;27.07;32.18;97163.63;5082602;28;20019;-30
2022/05/07 05:59:50;;;;;;;1.10;1.00;;;;;;;27.07;32.07;97163.63;5077497;28;20925;-29
2022/05/07 06:02:18;;;;;;;1.92;1.17;;;;;;;27.06;32.01;97164.56;5075610;28;20603;-29
2022/05/07 06:04:43;;;;;;;5.10;1.20;;;;;;;27.07;32.02;97163.63;5078682;28;20061;-30
2022/05/07 06:07:09;;;;;;;5.47;1.55;;;;;;;27.07;32.12;97163.63;5080888;28;21931;-31
2022/05/07 06:09:34;;;;;;;2.55;1.00;;;;;;;27.07;32.10;97162.75;5075453;28;20028;-32
2022/05/07 06:12:00;;;;;;;2.88;1.10;;;;;;;27.08;32.08;97167.13;5084007;28;20054;-29
2022/05/07 06:14:25;;;;;;;2.10;0.90;;;;;;;27.07;32.16;97168.88;5078387;28;20097;-29
2022/05/07 06:16:51;;;;;;;2.60;1.17;;;;;;;27.08;32.22;97167.94;5072410;28;20126;-29
2022/05/07 06:19:16;;;;;;;3.95;1.15;;;;;;;27.08;32.07;97172.38;5077459;28;20825;-29
2022/05/07 06:21:42;;;;;;;9.48;2.00;;;;;;;27.07;32.17;97171.50;5080007;28;20047;-29
2022/05/07 06:29:36;;;;;;;3.83;1.50;;;;;;;27.07;31.94;97174.16;5068731;28;20725;-31
2022/05/07 06:32:02;;;;;;;4.15;1.30;;;;;;;27.06;31.96;97167.19;5063266;28;20035;-30
2022/05/07 06:34:27;;;;;;;3.20;1.45;;;;;;;27.06;31.95;97164.56;5069518;28;20798;-28
2022/05/07 06:36:54;;;;;;;2.95;1.70;;;;;;;27.07;31.90;97163.63;5074462;28;20573;-30
2022/05/07 06:39:20;;;;;;;6.65;1.80;;;;;;;27.07;31.94;97171.50;5076281;28;20028;-29
2022/05/07 06:41:47;;;;;;;7.45;2.80;;;;;;;27.08;31.98;97170.56;5080772;28;20058;-29
2022/05/07 06:44:13;;;;;;;12.55;3.33;;;;;;;27.08;32.05;97170.56;5076788;28;20035;-30
2022/05/07 06:46:38;;;;;;;10.52;3.92;;;;;;;27.09;32.07;97172.31;5078457;28;20035;-29
2022/05/07 06:49:04;;;;;;;9.43;3.28;;;;;;;27.10;32.07;97171.38;5082659;28;20032;-33
2022/05/07 06:51:31;;;;;;;10.75;3.67;;;;;;;27.11;32.02;97175.69;5079280;28;20427;-29
2022/05/07 06:53:56;;;;;;;8.25;3.30;;;;;;;27.11;31.99;97170.41;5071571;28;20549;-31
2022/05/07 06:56:22;;;;;;;29.88;3.90;;;;;;;27.13;32.05;97170.34;5074617;28;20027;-30
2022/05/07 06:58:47;;;;;;;12.60;3.20;;;;;;;27.13;32.03;97173.84;5073112;28;20462;-31
2022/05/07 07:01:13;;;;;;;12.02;3.58;;;;;;;27.14;31.39;97179.94;5073728;28;20055;-28
2022/05/07 07:03:38;;;;;;;11.63;2.90;;;;;;;27.13;31.36;97173.84;5076304;28;20035;-30
2022/05/07 07:06:04;;;;;;;14.07;3.00;;;;;;;27.12;31.15;97177.38;5073654;28;20024;-30
2022/05/07 07:08:30;;;;;;;9.63;2.78;;;;;;;27.11;31.04;97175.69;5078504;28;20239;-32
2022/05/07 07:10:55;;;;;;;9.88;3.65;;;;;;;27.11;31.05;97174.81;5071497;28;20065;-28
2022/05/07 07:13:21;;;;;;;20.00;3.35;;;;;;;27.08;30.83;97170.56;5079217;28;20019;-29
2022/05/07 07:15:47;;;;;;;7.63;3.00;;;;;;;27.09;30.68;97177.56;5074486;28;20035;-32
2022/05/07 07:18:12;;;;;;;5.35;2.90;;;;;;;27.08;30.69;97170.56;5074938;28;20035;-30
2022/05/07 07:20:42;;;;;;;12.90;2.90;;;;;;;27.07;30.65;97174.16;5075010;28;20090;-30
2022/05/07 07:23:11;;;;;;;8.60;3.08;;;;;;;27.07;30.47;97174.16;5078397;28;20035;-30
2022/05/07 07:25:40;;;;;;;7.53;3.03;;;;;;;27.06;30.55;97172.44;5077083;28;20104;-30
2022/05/07 07:28:06;;;;;;;9.43;2.80;;;;;;;27.06;30.52;97172.44;5079177;28;20034;-29
2022/05/07 07:30:32;;;;;;;5.22;2.85;;;;;;;27.06;30.46;97171.59;5075972;28;20028;-28
2022/05/07 07:32:57;;;;;;;4.80;2.70;;;;;;;27.07;30.54;97168.03;5080295;28;20035;-29
2022/05/07 07:35:23;;;;;;;7.15;3.15;;;;;;;27.06;30.52;97166.31;5075456;28;20160;-29
2022/05/07 07:37:49;;;;;;;6.15;2.80;;;;;;;27.06;30.49;97167.19;5072934;27;20039;-30
2022/05/07 07:40:14;;;;;;;4.18;2.72;;;;;;;27.07;30.52;97160.13;5070938;28;20049;-32
2022/05/07 07:42:41;;;;;;;8.15;2.75;;;;;;;27.07;30.41;97165.38;5077711;28;20482;-30
2022/05/07 07:47:58;;;;;;;10.93;3.10;;;;;;;27.06;30.53;97161.94;5074835;28;20039;-29
2022/05/07 07:50:34;;;;;;;5.28;2.78;;;;;;;27.06;30.44;97172.44;5076120;28;20032;-30
2022/05/07 07:53:09;;;;;;;6.03;2.92;;;;;;;27.06;30.49;97163.69;5073447;28;20063;-30
2022/05/07 07:55:36;;;;;;;7.07;3.28;;;;;;;27.07;30.40;97163.63;5076930;28;20116;-31
2022/05/07 07:58:02;;;;;;;4.75;2.70;;;;;;;27.07;30.42;97166.25;5077755;28;20031;-29
2022/05/07 08:00:29;;;;;;;5.75;3.10;;;;;;;27.07;30.30;97165.38;5077762;28;20119;-30
2022/05/07 08:02:56;;;;;;;8.18;3.30;;;;;;;27.08;30.32;97162.69;5076046;28;20087;-29
2022/05/07 08:05:22;;;;;;;6.20;3.03;;;;;;;27.09;30.36;97160.91;5076845;28;20525;-30
2022/05/07 08:13:15;;;;;;;6.43;3.05;;;;;;;27.10;30.20;97163.47;5077308;28;20094;-29
2022/05/07 08:15:42;;;;;;;5.45;2.88;;;;;;;27.12;30.23;97163.41;5075689;28;22079;-27
2022/05/07 08:18:07;;;;;;;5.50;3.20;;;;;;;27.12;30.27;97155.50;5074971;28;20122;-28
2022/05/07 08:20:32;;;;;;;5.75;3.45;;;;;;;27.13;30.44;97167.72;5072398;28;20039;-30
2022/05/07 08:22:58;;;;;;;6.53;2.90;;;;;;;27.13;30.26;97162.47;5075295;28;20028;-28
2022/05/07 08:25:23;;;;;;;5.70;2.80;;;;;;;27.13;30.21;97160.69;5078394;28;20034;-29
2022/05/07 08:27:49;;;;;;;5.05;2.92;;;;;;;27.16;30.35;97164.94;5073923;28;21275;-29
2022/05/07 08:30:14;;;;;;;5.85;2.83;;;;;;;27.16;30.27;97157.03;5077288;28;20077;-29
2022/05/07 08:32:39;;;;;;;5.88;2.92;;;;;;;27.17;30.38;97163.13;5074961;28;20066;-28
2022/05/07 08:35:05;;;;;;;16.02;3.28;;;;;;;27.18;30.28;97160.44;5072079;28;20492;-29
2022/05/07 08:37:31;;;;;;;6.50;3.28;;;;;;;27.19;30.13;97162.13;5068615;28;20028;-27
2022/05/07 08:40:01;;;;;;;7.90;3.70;;;;;;;27.17;30.01;97160.50;5074318;28;20032;-31
2022/05/07 08:42:30;;;;;;;7.00;3.13;;;;;;;27.12;29.64;97156.34;5075385;28;20035;-27
2022/05/07 08:44:56;;;;;;;7.78;3.15;;;;;;;27.07;29.40;97157.50;5074133;28;20024;-30
2022/05/07 08:47:23;;;;;;;5.78;3.67;;;;;;;27.02;28.39;97155.13;5066832;28;20532;-27
2022/05/07 08:49:52;;;;;;;5.50;3.08;;;;;;;26.95;28.23;97164.25;5068154;28;20028;-28
2022/05/07 08:52:18;;;;;;;5.05;2.95;;;;;;;26.86;27.93;97163.78;5070977;28;20032;-28
2022/05/07 08:54:45;;;;;;;8.20;3.22;;;;;;;26.79;27.98;97159.78;5071808;28;20051;-31
2022/05/07 08:57:11;;;;;;;9.02;3.20;;;;;;;26.75;28.17;97166.13;5078090;28;20031;-27
2022/05/07 08:59:37;;;;;;;7.43;2.60;;;;;;;26.71;28.16;97161.94;5071024;28;20630;-29
2022/05/07 09:02:03;;;;;;;7.28;2.50;;;;;;;26.69;28.47;97158.56;5070359;28;20765;-30
2022/05/07 09:04:28;;;;;;;5.90;2.50;;;;;;;26.67;28.36;97163.88;5071739;28;20513;-28
2022/05/07 09:06:55;;;;;;;3.47;2.38;;;;;;;26.67;28.51;97158.63;5078087;28;20032;-29
2022/05/07 09:09:20;;;;;;;6.57;2.20;;;;;;;26.69;28.54;97158.56;5069549;28;20507;-28
2022/05/07 09:11:45;;;;;;;6.20;2.45;;;;;;;26.71;28.64;97156.69;5077483;28;20615;-28
2022/05/07 09:14:11;;;;;;;6.88;2.47;;;;;;;26.71;28.69;97159.31;5074731;28;20020;-29
2022/05/07 09:16:40;;;;;;;6.65;2.40;;;;;;;26.73;28.82;97160.94;5073497;28;20024;-27
2022/05/07 09:19:06;;;;;;;5.05;2.25;;;;;;;26.74;28.83;97157.38;5075012;28;20135;-29
2022/05/07 09:21:32;;;;;;;4.70;2.40;;;;;;;26.76;28.86;97152.03;5079765;28;20154;-28
2022/05/07 09:23:57;;;;;;;6.78;2.47;;;;;;;26.79;28.61;97158.91;5074949;28;20027;-30
2022/05/07 09:26:24;;;;;;;8.27;2.75;;;;;;;26.79;28.41;97149.25;5075618;28;20415;-29
2022/05/07 09:28:49;;;;;;;4.28;2.20;;;;;;;26.82;28.57;97158.75;5077865;28;20027;-28
2022/05/07 09:31:24;;;;;;;9.80;2.58;;;;;;;26.82;28.55;97154.38;5072192;28;20833;-28
2022/05/07 09:33:49;;;;;;;6.57;2.25;;;;;;;26.84;28.60;97152.50;5075392;28;20035;-29
2022/05/07 09:36:15;;;;;;;9.07;2.50;;;;;;;26.85;28.60;97154.19;5080571;28;20028;-27
2022/05/07 09:38:40;;;;;;;6.97;2.35;;;;;;;26.87;28.51;97152.34;5081257;28;20054;-27
2022/05/07 09:41:06;;;;;;;6.00;2.53;;;;;;;26.87;28.63;97152.34;5080212;28;20092;-28
2022/05/07 09:43:32;;;;;;;5.30;2.55;;;;;;;26.89;28.46;97157.53;5081961;28;20529;-27
2022/05/07 09:45:57;;;;;;;6.65;2.70;;;;;;;26.90;28.47;97151.34;5080883;28;20027;-29
2022/05/07 09:48:22;;;;;;;5.80;2.50;;;;;;;26.91;28.40;97153.03;5081458;28;20035;-27
2022/05/07 09:50:48;;;;;;;5.82;2.63;;;;;;;26.91;28.36;97153.03;5078494;28;20028;-29
2022/05/07 09:58:47;;;;;;;7.25;2.17;;;;;;;26.91;28.01;97157.44;5076422;28;20393;-34
2022/05/07 10:01:21;;;;;;;3.78;1.95;;;;;;;26.91;27.89;97154.78;5080638;28;20031;-28
2022/05/07 10:04:24;;;;;;;4.82;3.00;;;;;;;26.91;28.02;97153.03;5074398;28;20036;-29
2022/05/07 10:07:27;;;;;;;6.20;2.42;;;;;;;26.92;27.92;97148.63;5074075;28;20807;-29
2022/05/07 10:10:18;;;;;;;3.95;2.10;;;;;;;26.90;27.43;97150.47;5069992;28;20822;-28
2022/05/07 10:12:44;;;;;;;8.63;3.72;;;;;;;26.88;27.43;97148.78;5064875;28;20059;-28
2022/05/07 10:15:13;;;;;;;8.43;3.90;;;;;;;26.88;27.38;97148.78;5058655;28;20055;-28
2022/05/07 10:17:39;;;;;;;10.18;3.97;;;;;;;26.87;27.40;97136.56;5072808;28;20927;-27
2022/05/07 10:20:06;;;;;;;10.68;4.00;;;;;;;26.86;27.23;97134.84;5076767;28;20069;-31
2022/05/07 10:22:31;;;;;;;7.43;2.78;;;;;;;26.85;27.06;97138.41;5076448;28;20038;-30
2022/05/07 10:25:05;;;;;;;9.85;2.50;;;;;;;26.85;26.77;97138.41;5078247;28;20035;-29
2022/05/07 10:27:34;;;;;;;5.47;2.92;;;;;;;26.84;26.72;97141.97;5078068;28;20185;-29
2022/05/07 10:30:21;;;;;;;7.50;3.58;;;;;;;26.83;26.44;97135.03;5075247;28;20119;-29
2022/05/07 10:32:56;;;;;;;6.57;2.53;;;;;;;26.84;26.66;97139.34;5076196;28;20031;-28
2022/05/07 10:35:52;;;;;;;4.57;2.20;;;;;;;26.84;26.73;97136.72;5072890;28;20036;-29
2022/05/07 10:38:23;;;;;;;5.03;2.40;;;;;;;26.85;26.57;97133.16;5065151;28;20063;-30
2022/05/07 10:40:52;;;;;;;8.00;2.58;;;;;;;26.85;26.63;97133.16;5074647;28;20074;-29
2022/05/07 10:43:25;;;;;;;5.55;2.40;;;;;;;26.87;26.67;97130.44;5078777;28;20128;-30
2022/05/07 10:46:07;;;;;;;5.15;2.22;;;;;;;26.88;26.66;97129.50;5071569;28;20024;-28
2022/05/07 10:48:42;;;;;;;4.97;2.65;;;;;;;26.90;26.83;97129.44;5065966;28;20036;-28
2022/05/07 10:51:18;;;;;;;6.43;2.13;;;;;;;26.91;26.63;97125.88;5075101;28;20046;-31
2022/05/07 10:53:43;;;;;;;16.48;2.67;;;;;;;26.92;26.68;97122.34;5072492;28;20032;-30
2022/05/07 10:56:19;;;;;;;7.03;2.38;;;;;;;26.92;26.64;97117.06;5074811;27;20032;-28
2022/05/07 10:58:48;;;;;;;9.98;2.10;;;;;;;26.93;26.55;97118.75;5073078;28;20031;-28
2022/05/07 11:01:14;;;;;;;7.55;2.40;;;;;;;26.95;26.73;97122.19;5075504;28;20028;-27
2022/05/07 11:03:39;;;;;;;5.13;2.60;;;;;;;26.95;26.58;97119.56;5073871;27;20503;-29
2022/05/07 11:06:05;;;;;;;11.70;2.75;;;;;;;26.96;26.58;97118.66;5076354;28;22789;-28
2022/05/07 11:08:30;;;;;;;7.60;2.20;;;;;;;26.97;26.69;97117.69;5074319;28;20032;-28
2022/05/07 11:11:07;;;;;;;6.70;2.30;;;;;;;26.98;26.58;97111.50;5074874;28;20028;-28
2022/05/07 11:13:46;;;;;;;3.30;1.90;;;;;;;26.98;26.61;97112.38;5072083;28;20054;-27
2022/05/07 11:16:11;;;;;;;4.20;2.33;;;;;;;27.00;26.61;97114.88;5075080;28;20027;-29
2022/05/07 11:18:37;;;;;;;6.72;2.30;;;;;;;27.00;26.78;97110.50;5081801;28;20044;-29
2022/05/07 11:21:04;;;;;;;5.22;2.20;;;;;;;27.02;26.69;97107.78;5081607;28;20030;-28
2022/05/07 11:23:34;;;;;;;6.95;2.17;;;;;;;27.03;26.54;97109.47;5083304;28;20158;-29
2022/05/07 11:26:09;;;;;;;5.03;2.20;;;;;;;27.03;26.42;97098.97;5081074;28;20031;-28
2022/05/07 11:28:35;;;;;;;3.75;1.77;;;;;;;27.03;26.34;97088.44;5081286;28;20151;-28
2022/05/07 11:31:01;;;;;;;4.80;1.90;;;;;;;27.03;26.26;97096.31;5071038;28;20517;-27
2022/05/07 11:33:27;;;;;;;5.97;2.47;;;;;;;27.04;26.35;97089.28;5074751;28;20042;-30
2022/05/07 11:36:09;;;;;;;8.57;2.30;;;;;;;27.04;26.14;97092.75;5076527;28;20035;-30
2022/05/07 11:38:35;;;;;;;5.45;2.30;;;;;;;27.06;26.16;97097.94;5072141;28;20649;-29
2022/05/07 11:41:14;;;;;;;11.13;2.22;;;;;;;27.06;26.38;97093.53;5078969;28;20063;-27
2022/05/07 11:46:23;;;;;;;12.65;2.50;;;;;;;27.04;26.80;97079.59;5075030;28;20074;-28
2022/05/07 11:48:49;;;;;;;10.25;2.28;;;;;;;27.07;27.08;97082.09;5068941;28;20236;-28
2022/05/07 11:51:22;;;;;;;6.88;2.38;;;;;;;27.08;27.14;97086.41;5074125;28;20032;-28
2022/05/07 11:53:48;;;;;;;8.02;2.20;;;;;;;27.09;27.36;97088.13;5080498;28;20869;-29
2022/05/07 11:56:13;;;;;;;10.98;2.25;;;;;;;27.09;27.17;97082.88;5076548;28;20112;-31
2022/05/07 11:58:42;;;;;;;6.78;1.90;;;;;;;27.09;27.00;97076.75;5068614;28;20960;-30
2022/05/07 12:01:24;;;;;;;10.77;2.22;;;;;;;27.10;26.76;97073.16;5075688;28;20031;-30